createdAt,value
2019-06-26T00:00:40.268Z,22.32
2019-06-26T00:01:40.241Z,22.29
2019-06-26T00:02:40.266Z,22.30
2019-06-26T00:03:40.223Z,22.29
2019-06-26T00:04:40.214Z,22.30
2019-06-26T00:05:40.225Z,22.30
2019-06-26T00:06:40.194Z,22.32
2019-06-26T00:07:40.212Z,22.26
2019-06-26T00:08:40.174Z,22.20
2019-06-26T00:09:40.171Z,22.18
2019-06-26T00:10:40.166Z,22.18
2019-06-26T00:11:40.132Z,22.13
2019-06-26T00:12:40.130Z,22.11
2019-06-26T00:13:40.110Z,22.08
2019-06-26T00:14:40.097Z,22.06
2019-06-26T00:15:40.092Z,22.07
2019-06-26T00:16:40.107Z,22.02
2019-06-26T00:17:40.075Z,22.00
2019-06-26T00:18:40.073Z,21.98
2019-06-26T00:19:40.048Z,21.96
2019-06-26T00:20:40.024Z,21.93
2019-06-26T00:21:40.022Z,21.92
2019-06-26T00:22:40.065Z,21.92
2019-06-26T00:23:40.016Z,21.92
2019-06-26T00:24:40.002Z,21.91
2019-06-26T00:25:39.979Z,21.89
2019-06-26T00:26:39.981Z,21.85
2019-06-26T00:27:39.965Z,21.85
2019-06-26T00:28:39.976Z,21.80
2019-06-26T00:29:40.063Z,21.76
2019-06-26T00:30:39.940Z,21.75
2019-06-26T00:31:39.911Z,21.77
2019-06-26T00:32:39.906Z,21.82
2019-06-26T00:33:39.894Z,21.85
2019-06-26T00:34:39.910Z,21.75
2019-06-26T00:35:39.875Z,21.67
2019-06-26T00:36:39.871Z,21.55
2019-06-26T00:37:39.848Z,21.48
2019-06-26T00:38:40.237Z,21.46
2019-06-26T00:39:39.840Z,21.46
2019-06-26T00:40:39.863Z,21.42
2019-06-26T00:41:39.816Z,21.35
2019-06-26T00:42:39.840Z,21.29
2019-06-26T00:43:42.542Z,21.25
2019-06-26T00:44:39.778Z,21.25
2019-06-26T00:45:39.831Z,21.21
2019-06-26T00:46:39.782Z,21.20
2019-06-26T00:47:39.743Z,21.18
2019-06-26T00:48:39.732Z,21.25
2019-06-26T00:49:39.723Z,21.32
2019-06-26T00:50:39.719Z,21.39
2019-06-26T00:51:39.717Z,21.43
2019-06-26T00:52:39.732Z,21.45
2019-06-26T00:53:39.689Z,21.45
2019-06-26T00:54:39.703Z,21.42
2019-06-26T00:55:39.661Z,21.40
2019-06-26T00:56:39.666Z,21.37
2019-06-26T00:57:39.643Z,21.33
2019-06-26T00:58:39.623Z,21.30
2019-06-26T00:59:39.622Z,21.33
2019-06-26T01:00:39.619Z,21.27
2019-06-26T01:01:39.687Z,21.27
2019-06-26T01:02:39.599Z,21.30
2019-06-26T01:03:39.568Z,21.22
2019-06-26T01:04:39.634Z,21.15
2019-06-26T01:05:39.542Z,21.11
2019-06-26T01:06:39.576Z,21.07
2019-06-26T01:07:39.522Z,21.05
2019-06-26T01:08:39.510Z,20.96
2019-06-26T01:09:39.498Z,20.93
2019-06-26T01:10:39.507Z,20.97
2019-06-26T01:11:39.477Z,20.99
2019-06-26T01:12:39.518Z,21.02
2019-06-26T01:13:39.461Z,21.03
2019-06-26T01:14:39.453Z,21.03
2019-06-26T01:15:39.424Z,20.95
2019-06-26T01:16:39.421Z,20.90
2019-06-26T01:17:39.499Z,20.87
2019-06-26T01:18:39.424Z,20.87
2019-06-26T01:19:39.415Z,20.78
2019-06-26T01:20:39.369Z,20.75
2019-06-26T01:21:39.366Z,20.77
2019-06-26T01:22:39.359Z,20.80
2019-06-26T01:23:39.337Z,20.70
2019-06-26T01:24:39.378Z,20.69
2019-06-26T01:25:39.324Z,20.69
2019-06-26T01:26:39.310Z,20.67
2019-06-26T01:27:39.301Z,20.67
2019-06-26T01:28:39.293Z,20.66
2019-06-26T01:29:39.322Z,20.60
2019-06-26T01:30:39.266Z,20.65
2019-06-26T01:31:39.261Z,20.69
2019-06-26T01:32:39.245Z,20.75
2019-06-26T01:33:39.235Z,20.80
2019-06-26T01:34:39.222Z,20.75
2019-06-26T01:35:39.250Z,20.72
2019-06-26T01:36:39.245Z,20.66
2019-06-26T01:37:39.186Z,20.59
2019-06-26T01:38:39.180Z,20.52
2019-06-26T01:39:39.196Z,20.50
2019-06-26T01:40:39.173Z,20.56
2019-06-26T01:41:39.147Z,20.63
2019-06-26T01:42:39.170Z,20.67
2019-06-26T01:43:39.152Z,20.72
2019-06-26T01:44:39.118Z,20.72
2019-06-26T01:45:39.108Z,20.74
2019-06-26T01:46:39.110Z,20.75
2019-06-26T01:47:39.074Z,20.77
2019-06-26T01:48:39.092Z,20.74
2019-06-26T01:49:39.056Z,20.69
2019-06-26T01:50:39.041Z,20.66
2019-06-26T01:51:39.033Z,20.63
2019-06-26T01:52:39.113Z,20.65
2019-06-26T01:53:39.017Z,20.60
2019-06-26T01:54:39.007Z,20.50
2019-06-26T01:55:38.999Z,20.43
2019-06-26T01:56:38.989Z,20.41
2019-06-26T01:57:38.967Z,20.40
2019-06-26T01:58:38.976Z,20.39
2019-06-26T01:59:38.973Z,20.39
2019-06-26T02:00:38.942Z,20.34
2019-06-26T02:01:38.919Z,20.34
2019-06-26T02:02:38.913Z,20.34
2019-06-26T02:03:38.922Z,20.34
2019-06-26T02:04:38.907Z,20.32
2019-06-26T02:05:38.902Z,20.31
2019-06-26T02:06:38.919Z,20.26
2019-06-26T02:07:38.869Z,20.25
2019-06-26T02:08:38.876Z,20.28
2019-06-26T02:09:38.869Z,20.32
2019-06-26T02:10:38.844Z,20.31
2019-06-26T02:11:38.816Z,20.25
2019-06-26T02:12:38.862Z,20.25
2019-06-26T02:13:38.801Z,20.26
2019-06-26T02:14:38.806Z,20.19
2019-06-26T02:15:38.780Z,20.16
2019-06-26T02:16:38.787Z,20.14
2019-06-26T02:17:38.757Z,20.10
2019-06-26T02:18:38.732Z,20.06
2019-06-26T02:19:38.739Z,20.06
2019-06-26T02:20:38.714Z,20.07
2019-06-26T02:21:38.712Z,20.06
2019-06-26T02:22:38.735Z,20.00
2019-06-26T02:23:38.699Z,19.95
2019-06-26T02:24:38.679Z,19.96
2019-06-26T02:25:38.687Z,19.95
2019-06-26T02:26:38.663Z,19.94
2019-06-26T02:27:38.668Z,19.96
2019-06-26T02:28:38.627Z,20.02
2019-06-26T02:29:38.614Z,20.04
2019-06-26T02:30:38.602Z,20.06
2019-06-26T02:31:38.602Z,20.00
2019-06-26T02:32:38.616Z,19.94
2019-06-26T02:33:38.572Z,19.94
2019-06-26T02:34:38.567Z,19.95
2019-06-26T02:35:38.548Z,19.91
2019-06-26T02:36:38.559Z,19.94
2019-06-26T02:37:38.534Z,19.96
2019-06-26T02:38:38.611Z,20.02
2019-06-26T02:39:38.535Z,20.06
2019-06-26T02:40:38.532Z,20.10
2019-06-26T02:41:38.480Z,20.07
2019-06-26T02:42:38.483Z,20.07
2019-06-26T02:43:38.460Z,20.04
2019-06-26T02:44:52.391Z,19.92
2019-06-26T02:45:39.434Z,19.86
2019-06-26T02:46:38.431Z,19.89
2019-06-26T02:47:38.428Z,19.92
2019-06-26T02:48:38.407Z,19.95
2019-06-26T02:49:38.389Z,19.92
2019-06-26T02:50:38.413Z,19.84
2019-06-26T02:51:38.449Z,19.76
2019-06-26T02:52:38.387Z,19.76
2019-06-26T02:53:38.348Z,19.73
2019-06-26T02:54:38.352Z,19.73
2019-06-26T02:55:38.322Z,19.77
2019-06-26T02:56:38.389Z,19.76
2019-06-26T02:57:38.342Z,19.70
2019-06-26T02:58:38.299Z,19.71
2019-06-26T02:59:38.288Z,19.77
2019-06-26T03:00:38.276Z,19.79
2019-06-26T03:01:38.261Z,19.85
2019-06-26T03:02:38.262Z,19.89
2019-06-26T03:03:38.264Z,19.86
2019-06-26T03:04:38.233Z,19.88
2019-06-26T03:05:38.216Z,19.92
2019-06-26T03:06:38.205Z,19.89
2019-06-26T03:07:38.190Z,19.82
2019-06-26T03:08:38.217Z,19.77
2019-06-26T03:09:38.173Z,19.79
2019-06-26T03:10:38.212Z,19.79
2019-06-26T03:11:38.148Z,19.71
2019-06-26T03:12:38.152Z,19.66
2019-06-26T03:13:38.131Z,19.64
2019-06-26T03:14:38.121Z,19.66
2019-06-26T03:15:38.111Z,19.67
2019-06-26T03:16:38.198Z,19.67
2019-06-26T03:17:53.796Z,19.67
2019-06-26T03:18:39.112Z,19.66
2019-06-26T03:19:38.071Z,19.66
2019-06-26T03:20:38.048Z,19.69
2019-06-26T03:21:38.038Z,19.69
2019-06-26T03:22:38.050Z,19.62
2019-06-26T03:23:38.028Z,19.58
2019-06-26T03:24:38.000Z,19.58
2019-06-26T03:25:38.004Z,19.56
2019-06-26T03:26:38.009Z,19.62
2019-06-26T03:27:37.978Z,19.63
2019-06-26T03:28:37.975Z,19.63
2019-06-26T03:29:37.948Z,19.64
2019-06-26T03:30:37.956Z,19.63
2019-06-26T03:31:37.968Z,19.66
2019-06-26T03:32:37.939Z,19.67
2019-06-26T03:33:37.914Z,19.62
2019-06-26T03:34:37.900Z,19.62
2019-06-26T03:35:40.703Z,19.59
2019-06-26T03:36:37.875Z,19.63
2019-06-26T03:37:37.894Z,19.66
2019-06-26T03:38:37.900Z,19.70
2019-06-26T03:39:37.840Z,19.73
2019-06-26T03:40:37.830Z,19.69
2019-06-26T03:41:37.846Z,19.69
2019-06-26T03:42:37.807Z,19.70
2019-06-26T03:43:37.856Z,19.67
2019-06-26T03:44:37.781Z,19.69
2019-06-26T03:45:37.774Z,19.71
2019-06-26T03:46:37.820Z,19.73
2019-06-26T03:47:37.741Z,19.73
2019-06-26T03:48:37.744Z,19.74
2019-06-26T03:49:37.731Z,19.77
2019-06-26T03:50:37.720Z,19.74
2019-06-26T03:51:37.718Z,19.79
2019-06-26T03:52:37.716Z,19.81
2019-06-26T03:53:37.692Z,19.79
2019-06-26T03:54:37.687Z,19.79
2019-06-26T03:55:37.675Z,19.85
2019-06-26T03:56:37.640Z,19.85
2019-06-26T03:57:39.644Z,19.88
2019-06-26T03:58:37.632Z,19.85
2019-06-26T03:59:37.633Z,19.77
2019-06-26T04:00:37.603Z,19.74
2019-06-26T04:01:37.635Z,19.76
2019-06-26T04:02:37.589Z,19.79
2019-06-26T04:03:37.632Z,19.86
2019-06-26T04:04:37.586Z,19.89
2019-06-26T04:05:37.563Z,19.88
2019-06-26T04:06:37.540Z,19.85
2019-06-26T04:07:37.538Z,19.86
2019-06-26T04:08:37.531Z,19.91
2019-06-26T04:09:37.570Z,19.99
2019-06-26T04:10:37.496Z,20.03
2019-06-26T04:11:37.496Z,20.04
2019-06-26T04:12:37.478Z,20.02
2019-06-26T04:13:37.467Z,20.00
2019-06-26T04:14:37.484Z,20.00
2019-06-26T04:15:42.363Z,20.02
2019-06-26T04:16:38.433Z,20.06
2019-06-26T04:17:37.429Z,20.07
2019-06-26T04:18:37.417Z,20.11
2019-06-26T04:19:37.459Z,20.19
2019-06-26T04:20:37.391Z,20.25
2019-06-26T04:21:37.368Z,20.32
2019-06-26T04:22:37.385Z,20.40
2019-06-26T04:23:37.377Z,20.50
2019-06-26T04:24:37.341Z,20.55
2019-06-26T04:25:38.424Z,20.59
2019-06-26T04:26:37.329Z,20.63
2019-06-26T04:27:37.308Z,20.65
2019-06-26T04:28:37.331Z,20.69
2019-06-26T04:29:37.286Z,20.74
2019-06-26T04:30:37.273Z,20.81
2019-06-26T04:31:37.277Z,20.87
2019-06-26T04:32:37.250Z,20.92
2019-06-26T04:33:37.239Z,20.99
2019-06-26T04:34:37.277Z,21.05
2019-06-26T04:35:37.235Z,21.15
2019-06-26T04:36:37.215Z,21.27
2019-06-26T04:37:37.221Z,21.39
2019-06-26T04:38:37.184Z,21.50
2019-06-26T04:39:37.180Z,21.61
2019-06-26T04:40:37.192Z,21.73
2019-06-26T04:41:37.153Z,21.83
2019-06-26T04:42:37.154Z,21.92
2019-06-26T04:43:37.168Z,21.93
2019-06-26T04:44:37.148Z,22.04
2019-06-26T04:45:37.146Z,22.08
2019-06-26T04:46:37.106Z,22.15
2019-06-26T04:47:37.106Z,22.25
2019-06-26T04:48:37.102Z,22.33
2019-06-26T04:49:37.074Z,22.41
2019-06-26T04:50:37.054Z,22.48
2019-06-26T04:51:37.055Z,22.53
2019-06-26T04:52:37.152Z,22.50
2019-06-26T04:53:37.031Z,22.44
2019-06-26T04:54:37.004Z,22.41
2019-06-26T04:55:36.999Z,22.36
2019-06-26T04:56:36.988Z,22.36
2019-06-26T04:57:36.981Z,22.35
2019-06-26T04:58:36.998Z,22.36
2019-06-26T04:59:36.955Z,22.39
2019-06-26T05:00:36.949Z,22.39
2019-06-26T05:01:36.947Z,22.41
2019-06-26T05:02:36.952Z,22.44
2019-06-26T05:03:36.913Z,22.48
2019-06-26T05:04:37.004Z,22.48
2019-06-26T05:05:39.937Z,22.51
2019-06-26T05:06:36.888Z,22.55
2019-06-26T05:07:36.888Z,22.57
2019-06-26T05:08:36.867Z,22.62
2019-06-26T05:09:36.876Z,22.66
2019-06-26T05:10:36.874Z,22.66
2019-06-26T05:11:36.826Z,22.68
2019-06-26T05:12:36.816Z,22.73
2019-06-26T05:13:36.801Z,22.73
2019-06-26T05:14:36.786Z,22.78
2019-06-26T05:15:36.783Z,22.81
2019-06-26T05:16:36.807Z,22.87
2019-06-26T05:17:36.761Z,22.90
2019-06-26T05:18:36.761Z,22.94
2019-06-26T05:19:36.747Z,22.98
2019-06-26T05:20:36.832Z,23.00
2019-06-26T05:21:36.713Z,23.03
2019-06-26T05:22:36.710Z,23.06
2019-06-26T05:23:36.710Z,23.03
2019-06-26T05:24:36.694Z,23.08
2019-06-26T05:25:36.671Z,23.12
2019-06-26T05:26:36.709Z,23.17
2019-06-26T05:27:36.689Z,23.21
2019-06-26T05:28:36.659Z,23.25
2019-06-26T05:29:36.650Z,23.27
2019-06-26T05:30:36.623Z,23.32
2019-06-26T05:31:36.616Z,23.34
2019-06-26T05:32:36.607Z,23.39
2019-06-26T05:33:36.604Z,23.44
2019-06-26T05:34:36.580Z,23.48
2019-06-26T05:35:36.570Z,23.51
2019-06-26T05:36:36.563Z,23.56
2019-06-26T05:37:36.553Z,23.61
2019-06-26T05:38:36.569Z,23.65
2019-06-26T05:39:36.526Z,23.69
2019-06-26T05:40:36.530Z,23.76
2019-06-26T05:41:36.520Z,23.83
2019-06-26T05:42:36.503Z,23.86
2019-06-26T05:43:36.483Z,23.93
2019-06-26T05:44:36.561Z,23.96
2019-06-26T05:45:36.477Z,24.02
2019-06-26T05:46:36.441Z,24.01
2019-06-26T05:47:36.439Z,24.06
2019-06-26T05:48:36.445Z,24.13
2019-06-26T05:49:36.417Z,24.17
2019-06-26T05:50:36.434Z,24.20
2019-06-26T05:51:36.407Z,24.18
2019-06-26T05:52:36.386Z,24.26
2019-06-26T05:53:36.386Z,24.32
2019-06-26T05:54:36.384Z,24.33
2019-06-26T05:55:36.347Z,24.39
2019-06-26T05:56:36.352Z,24.43
2019-06-26T05:57:36.335Z,24.48
2019-06-26T05:58:36.315Z,24.51
2019-06-26T05:59:36.310Z,24.54
2019-06-26T06:00:36.415Z,24.61
2019-06-26T06:01:36.289Z,24.66
2019-06-26T06:02:36.300Z,24.68
2019-06-26T06:03:36.274Z,24.70
2019-06-26T06:04:36.254Z,24.74
2019-06-26T06:05:36.256Z,24.78
2019-06-26T06:06:41.506Z,24.81
2019-06-26T06:07:37.244Z,24.88
2019-06-26T06:08:36.207Z,24.91
2019-06-26T06:09:36.270Z,24.95
2019-06-26T06:10:36.198Z,24.98
2019-06-26T06:11:36.171Z,25.03
2019-06-26T06:12:36.159Z,25.06
2019-06-26T06:13:36.223Z,25.03
2019-06-26T06:14:36.139Z,25.07
2019-06-26T06:15:36.131Z,25.14
2019-06-26T06:16:46.888Z,25.21
2019-06-26T06:17:37.148Z,25.25
2019-06-26T06:18:36.100Z,25.32
2019-06-26T06:19:36.085Z,25.36
2019-06-26T06:20:36.075Z,25.41
2019-06-26T06:21:36.117Z,25.44
2019-06-26T06:22:36.065Z,25.50
2019-06-26T06:23:36.052Z,25.47
2019-06-26T06:24:36.043Z,25.55
2019-06-26T06:25:36.052Z,25.60
2019-06-26T06:26:36.034Z,25.65
2019-06-26T06:27:36.000Z,25.73
2019-06-26T06:28:35.990Z,25.78
2019-06-26T06:29:35.984Z,25.81
2019-06-26T06:30:35.993Z,25.85
2019-06-26T06:31:35.948Z,25.90
2019-06-26T06:32:35.953Z,25.98
2019-06-26T06:33:35.931Z,26.03
2019-06-26T06:34:35.928Z,26.03
2019-06-26T06:35:35.914Z,26.09
2019-06-26T06:36:35.935Z,26.13
2019-06-26T06:37:35.877Z,26.16
2019-06-26T06:38:35.891Z,26.21
2019-06-26T06:39:35.866Z,26.23
2019-06-26T06:40:35.848Z,26.28
2019-06-26T06:41:35.844Z,26.33
2019-06-26T06:42:35.861Z,26.34
2019-06-26T06:43:35.818Z,26.41
2019-06-26T06:44:35.815Z,26.48
2019-06-26T06:45:35.796Z,26.58
2019-06-26T06:46:35.787Z,26.65
2019-06-26T06:47:35.783Z,26.71
2019-06-26T06:48:35.795Z,26.74
2019-06-26T06:49:35.784Z,26.77
2019-06-26T06:50:35.751Z,26.77
2019-06-26T06:51:35.745Z,26.77
2019-06-26T06:52:35.733Z,26.81
2019-06-26T06:53:35.715Z,26.84
2019-06-26T06:54:35.808Z,26.90
2019-06-26T06:55:35.692Z,26.95
2019-06-26T06:56:36.008Z,26.99
2019-06-26T06:57:35.692Z,27.05
2019-06-26T06:58:35.651Z,27.11
2019-06-26T06:59:35.726Z,27.14
2019-06-26T07:00:36.087Z,27.21
2019-06-26T07:01:35.620Z,27.26
2019-06-26T07:02:35.622Z,27.26
2019-06-26T07:03:35.609Z,27.27
2019-06-26T07:04:35.601Z,27.27
2019-06-26T07:05:35.592Z,27.35
2019-06-26T07:06:35.614Z,27.37
2019-06-26T07:07:35.571Z,27.42
2019-06-26T07:08:36.533Z,27.49
2019-06-26T07:09:35.547Z,27.55
2019-06-26T07:10:35.543Z,27.54
2019-06-26T07:11:35.607Z,27.54
2019-06-26T07:12:35.907Z,27.48
2019-06-26T07:13:35.497Z,27.47
2019-06-26T07:14:35.489Z,27.55
2019-06-26T07:15:35.499Z,27.64
2019-06-26T07:16:35.501Z,27.67
2019-06-26T07:17:35.480Z,27.73
2019-06-26T07:18:35.461Z,27.77
2019-06-26T07:19:35.469Z,27.74
2019-06-26T07:20:35.459Z,27.75
2019-06-26T07:21:35.409Z,27.80
2019-06-26T07:22:35.405Z,27.83
2019-06-26T07:23:35.400Z,27.87
2019-06-26T07:24:35.388Z,27.93
2019-06-26T07:25:35.515Z,27.96
2019-06-26T07:26:35.350Z,28.01
2019-06-26T07:27:35.345Z,28.05
2019-06-26T07:28:35.336Z,28.14
2019-06-26T07:29:35.313Z,28.20
2019-06-26T07:30:35.330Z,28.19
2019-06-26T07:31:38.433Z,28.23
2019-06-26T07:32:35.532Z,28.29
2019-06-26T07:33:35.310Z,28.26
2019-06-26T07:34:35.404Z,28.26
2019-06-26T07:35:35.264Z,28.22
2019-06-26T07:36:35.272Z,28.19
2019-06-26T07:37:35.261Z,28.20
2019-06-26T07:38:35.230Z,28.26
2019-06-26T07:39:35.217Z,28.32
2019-06-26T07:40:35.231Z,28.39
2019-06-26T07:41:35.220Z,28.44
2019-06-26T07:42:35.189Z,28.47
2019-06-26T07:43:35.174Z,28.52
2019-06-26T07:44:35.169Z,28.59
2019-06-26T07:45:35.154Z,28.62
2019-06-26T07:46:35.138Z,28.67
2019-06-26T07:47:43.298Z,28.72
2019-06-26T07:48:36.175Z,28.79
2019-06-26T07:49:35.186Z,28.84
2019-06-26T07:50:35.122Z,28.86
2019-06-26T07:51:35.084Z,28.78
2019-06-26T07:52:35.077Z,28.75
2019-06-26T07:53:35.072Z,28.81
2019-06-26T07:54:35.049Z,28.82
2019-06-26T07:55:35.055Z,28.85
2019-06-26T07:56:35.043Z,28.91
2019-06-26T07:57:35.025Z,28.85
2019-06-26T07:58:35.016Z,28.89
2019-06-26T07:59:34.994Z,28.94
2019-06-26T08:00:35.043Z,28.97
2019-06-26T08:01:35.097Z,29.05
2019-06-26T08:02:34.968Z,29.14
2019-06-26T08:03:35.037Z,29.23
2019-06-26T08:04:34.945Z,29.32
2019-06-26T08:05:34.950Z,29.38
2019-06-26T08:06:34.950Z,29.42
2019-06-26T08:07:34.942Z,29.45
2019-06-26T08:08:34.895Z,29.51
2019-06-26T08:09:34.927Z,29.56
2019-06-26T08:10:34.891Z,29.60
2019-06-26T08:11:34.876Z,29.53
2019-06-26T08:12:34.868Z,29.51
2019-06-26T08:13:34.844Z,29.57
2019-06-26T08:14:34.840Z,29.59
2019-06-26T08:15:34.857Z,29.61
2019-06-26T08:16:34.834Z,29.59
2019-06-26T08:17:34.839Z,29.57
2019-06-26T08:18:34.788Z,29.54
2019-06-26T08:19:34.773Z,29.56
2019-06-26T08:20:51.636Z,29.63
2019-06-26T08:21:35.765Z,29.65
2019-06-26T08:22:34.745Z,29.71
2019-06-26T08:23:34.771Z,29.68
2019-06-26T08:24:34.731Z,29.75
2019-06-26T08:25:34.723Z,29.79
2019-06-26T08:26:34.728Z,29.90
2019-06-26T08:27:34.691Z,29.91
2019-06-26T08:28:34.681Z,29.84
2019-06-26T08:29:34.684Z,29.91
2019-06-26T08:30:34.675Z,30.03
2019-06-26T08:31:34.652Z,30.06
2019-06-26T08:32:34.685Z,30.10
2019-06-26T08:33:34.629Z,30.21
2019-06-26T08:34:34.627Z,30.30
2019-06-26T08:35:34.599Z,30.39
2019-06-26T08:36:34.599Z,30.43
2019-06-26T08:37:34.598Z,30.46
2019-06-26T08:38:34.618Z,30.54
2019-06-26T08:39:34.616Z,30.57
2019-06-26T08:40:34.591Z,30.59
2019-06-26T08:41:34.547Z,30.65
2019-06-26T08:42:34.535Z,30.69
2019-06-26T08:43:34.516Z,30.70
2019-06-26T08:44:34.537Z,30.72
2019-06-26T08:45:34.529Z,30.69
2019-06-26T08:46:34.491Z,30.70
2019-06-26T08:47:34.476Z,30.72
2019-06-26T08:48:40.015Z,30.77
2019-06-26T08:49:35.483Z,30.77
2019-06-26T08:50:34.477Z,30.83
2019-06-26T08:51:34.447Z,30.88
2019-06-26T08:52:34.427Z,30.96
2019-06-26T08:53:34.413Z,31.02
2019-06-26T08:54:34.461Z,31.05
2019-06-26T08:55:34.400Z,31.12
2019-06-26T08:56:34.411Z,31.17
2019-06-26T08:57:34.386Z,31.22
2019-06-26T08:58:34.355Z,31.28
2019-06-26T08:59:34.345Z,31.31
2019-06-26T09:00:34.350Z,31.37
2019-06-26T09:01:34.331Z,31.37
2019-06-26T09:02:34.372Z,31.42
2019-06-26T09:03:34.309Z,31.43
2019-06-26T09:04:34.295Z,31.39
2019-06-26T09:05:47.561Z,31.39
2019-06-26T09:06:35.273Z,31.40
2019-06-26T09:07:34.285Z,31.47
2019-06-26T09:08:34.273Z,31.52
2019-06-26T09:09:34.244Z,31.58
2019-06-26T09:10:34.247Z,31.64
2019-06-26T09:11:34.226Z,31.66
2019-06-26T09:12:34.211Z,31.70
2019-06-26T09:13:34.200Z,31.70
2019-06-26T09:14:34.254Z,31.73
2019-06-26T09:15:34.187Z,31.74
2019-06-26T09:16:34.190Z,31.77
2019-06-26T09:17:34.146Z,31.81
2019-06-26T09:18:35.814Z,31.87
2019-06-26T09:19:34.126Z,31.96
2019-06-26T09:20:34.187Z,31.99
2019-06-26T09:21:34.121Z,32.01
2019-06-26T09:22:34.122Z,32.08
2019-06-26T09:23:34.121Z,32.12
2019-06-26T09:24:34.108Z,32.16
2019-06-26T09:25:34.095Z,32.11
2019-06-26T09:26:34.063Z,32.12
2019-06-26T09:27:34.062Z,32.11
2019-06-26T09:28:34.044Z,32.15
2019-06-26T09:29:34.093Z,32.21
2019-06-26T09:30:34.020Z,32.27
2019-06-26T09:31:34.018Z,32.30
2019-06-26T09:32:34.005Z,32.30
2019-06-26T09:33:33.992Z,32.34
2019-06-26T09:34:33.981Z,32.37
2019-06-26T09:35:33.996Z,32.37
2019-06-26T09:36:33.953Z,32.38
2019-06-26T09:37:34.006Z,32.43
2019-06-26T09:38:33.933Z,32.46
2019-06-26T09:39:33.925Z,32.48
2019-06-26T09:40:33.943Z,32.56
2019-06-26T09:41:33.930Z,32.64
2019-06-26T09:42:33.924Z,32.70
2019-06-26T09:43:33.914Z,32.77
2019-06-26T09:44:33.901Z,32.86
2019-06-26T09:45:33.880Z,32.85
2019-06-26T09:46:33.874Z,32.85
2019-06-26T09:47:33.839Z,32.82
2019-06-26T09:48:33.914Z,32.90
2019-06-26T09:49:33.823Z,33.00
2019-06-26T09:50:33.822Z,33.01
2019-06-26T09:51:33.816Z,32.92
2019-06-26T09:52:33.785Z,32.93
2019-06-26T09:53:46.656Z,33.02
2019-06-26T09:54:34.769Z,33.04
2019-06-26T09:55:33.748Z,33.04
2019-06-26T09:56:33.754Z,33.05
2019-06-26T09:57:33.731Z,33.07
2019-06-26T09:58:33.755Z,33.09
2019-06-26T09:59:33.701Z,33.08
2019-06-26T10:00:33.701Z,33.12
2019-06-26T10:01:33.797Z,33.15
2019-06-26T10:02:33.687Z,33.19
2019-06-26T10:03:33.672Z,33.23
2019-06-26T10:04:33.753Z,33.30
2019-06-26T10:05:33.649Z,33.32
2019-06-26T10:06:33.656Z,33.40
2019-06-26T10:07:33.648Z,33.40
2019-06-26T10:08:33.617Z,33.37
2019-06-26T10:09:33.626Z,33.34
2019-06-26T10:10:33.606Z,33.39
2019-06-26T10:11:33.593Z,33.40
2019-06-26T10:12:33.585Z,33.45
2019-06-26T10:13:33.733Z,33.49
2019-06-26T10:14:46.643Z,33.49
2019-06-26T10:15:34.563Z,33.49
2019-06-26T10:16:33.539Z,33.47
2019-06-26T10:17:33.513Z,33.47
2019-06-26T10:18:33.510Z,33.46
2019-06-26T10:19:33.488Z,33.49
2019-06-26T10:20:33.484Z,33.52
2019-06-26T10:21:33.700Z,33.46
2019-06-26T10:22:33.471Z,33.43
2019-06-26T10:23:33.487Z,33.46
2019-06-26T10:24:33.475Z,33.52
2019-06-26T10:25:33.510Z,33.57
2019-06-26T10:26:33.439Z,33.59
2019-06-26T10:27:33.402Z,33.62
2019-06-26T10:28:33.466Z,33.67
2019-06-26T10:29:33.416Z,33.69
2019-06-26T10:30:33.382Z,33.71
2019-06-26T10:31:33.413Z,33.69
2019-06-26T10:32:33.378Z,33.69
2019-06-26T10:33:33.357Z,33.79
2019-06-26T10:34:33.344Z,33.77
2019-06-26T10:35:33.390Z,33.58
2019-06-26T10:36:33.334Z,33.55
2019-06-26T10:37:33.329Z,33.62
2019-06-26T10:38:33.331Z,33.69
2019-06-26T10:39:33.287Z,33.74
2019-06-26T10:40:33.294Z,33.81
2019-06-26T10:41:33.283Z,33.89
2019-06-26T10:42:33.263Z,33.96
2019-06-26T10:43:33.277Z,34.02
2019-06-26T10:44:33.248Z,34.02
2019-06-26T10:45:36.028Z,34.05
2019-06-26T10:46:33.222Z,34.18
2019-06-26T10:47:33.243Z,34.33
2019-06-26T10:48:33.198Z,34.43
2019-06-26T10:49:33.237Z,34.50
2019-06-26T10:50:33.170Z,34.55
2019-06-26T10:51:33.193Z,34.61
2019-06-26T10:52:33.163Z,34.60
2019-06-26T10:53:33.141Z,34.57
2019-06-26T10:54:33.124Z,34.43
2019-06-26T10:55:33.180Z,34.38
2019-06-26T10:56:33.106Z,34.38
2019-06-26T10:57:33.142Z,34.40
2019-06-26T10:58:33.109Z,34.50
2019-06-26T10:59:33.097Z,34.57
2019-06-26T11:00:33.057Z,34.60
2019-06-26T11:01:33.046Z,34.60
2019-06-26T11:02:33.035Z,34.61
2019-06-26T11:03:33.026Z,34.60
2019-06-26T11:04:33.063Z,34.58
2019-06-26T11:05:33.011Z,34.62
2019-06-26T11:06:36.773Z,34.74
2019-06-26T11:07:36.364Z,34.78
2019-06-26T11:08:32.992Z,34.78
2019-06-26T11:09:32.970Z,34.71
2019-06-26T11:10:32.976Z,34.66
2019-06-26T11:11:32.940Z,34.70
2019-06-26T11:12:32.931Z,34.81
2019-06-26T11:13:32.928Z,34.80
2019-06-26T11:14:32.905Z,34.77
2019-06-26T11:15:32.937Z,34.64
2019-06-26T11:16:32.934Z,34.58
2019-06-26T11:17:32.883Z,34.54
2019-06-26T11:18:32.878Z,34.61
2019-06-26T11:19:43.183Z,34.51
2019-06-26T11:20:33.844Z,34.52
2019-06-26T11:21:32.839Z,34.50
2019-06-26T11:22:32.892Z,34.48
2019-06-26T11:23:32.823Z,34.54
2019-06-26T11:24:32.821Z,34.66
2019-06-26T11:25:32.803Z,34.73
2019-06-26T11:26:32.873Z,34.81
2019-06-26T11:27:32.777Z,34.95
2019-06-26T11:28:32.757Z,35.02
2019-06-26T11:29:32.794Z,34.99
2019-06-26T11:30:32.750Z,35.04
2019-06-26T11:31:32.745Z,35.10
2019-06-26T11:32:32.754Z,35.11
2019-06-26T11:33:32.735Z,35.11
2019-06-26T11:34:32.719Z,35.07
2019-06-26T11:35:32.687Z,35.08
2019-06-26T11:36:32.687Z,35.11
2019-06-26T11:37:32.702Z,35.10
2019-06-26T11:38:32.660Z,35.00
2019-06-26T11:39:32.675Z,34.89
2019-06-26T11:40:32.688Z,34.85
2019-06-26T11:41:32.629Z,34.89
2019-06-26T11:42:32.926Z,34.97
2019-06-26T11:43:32.598Z,35.14
2019-06-26T11:44:32.608Z,35.24
2019-06-26T11:45:32.601Z,35.26
2019-06-26T11:46:32.596Z,35.26
2019-06-26T11:47:32.577Z,35.24
2019-06-26T11:48:32.571Z,35.12
2019-06-26T11:49:32.612Z,35.02
2019-06-26T11:50:32.535Z,35.00
2019-06-26T11:51:32.531Z,35.08
2019-06-26T11:52:32.663Z,35.12
2019-06-26T11:53:32.508Z,35.18
2019-06-26T11:54:32.496Z,35.23
2019-06-26T11:55:32.479Z,35.17
2019-06-26T11:56:32.517Z,35.19
2019-06-26T11:57:32.465Z,35.15
2019-06-26T11:58:32.484Z,35.23
2019-06-26T11:59:32.443Z,35.22
2019-06-26T12:00:32.439Z,35.08
2019-06-26T12:01:32.453Z,35.08
2019-06-26T12:02:32.430Z,35.11
2019-06-26T12:03:32.411Z,35.07
2019-06-26T12:04:32.385Z,35.15
2019-06-26T12:05:32.389Z,35.26
2019-06-26T12:06:32.380Z,35.19
2019-06-26T12:07:32.418Z,35.27
2019-06-26T12:08:32.359Z,35.33
2019-06-26T12:09:32.331Z,35.44
2019-06-26T12:10:32.319Z,35.49
2019-06-26T12:11:32.503Z,35.53
2019-06-26T12:12:32.306Z,35.66
2019-06-26T12:13:33.456Z,35.70
2019-06-26T12:14:32.286Z,35.66
2019-06-26T12:15:32.283Z,35.66
2019-06-26T12:16:32.259Z,35.64
2019-06-26T12:17:32.255Z,35.51
2019-06-26T12:18:32.246Z,35.39
2019-06-26T12:19:32.244Z,35.33
2019-06-26T12:20:32.301Z,35.34
2019-06-26T12:21:32.241Z,35.30
2019-06-26T12:22:32.208Z,35.36
2019-06-26T12:23:32.180Z,35.45
2019-06-26T12:24:32.279Z,35.39
2019-06-26T12:25:32.166Z,35.48
2019-06-26T12:26:32.143Z,35.58
2019-06-26T12:27:32.200Z,35.52
2019-06-26T12:28:32.176Z,35.39
2019-06-26T12:29:33.083Z,35.39
2019-06-26T12:30:32.112Z,35.42
2019-06-26T12:31:32.122Z,35.51
2019-06-26T12:32:41.449Z,35.42
2019-06-26T12:33:33.122Z,35.52
2019-06-26T12:34:32.080Z,35.55
2019-06-26T12:35:32.066Z,35.60
2019-06-26T12:36:32.082Z,35.64
2019-06-26T12:37:37.768Z,35.74
2019-06-26T12:38:33.039Z,35.86
2019-06-26T12:39:32.017Z,35.95
2019-06-26T12:40:32.082Z,35.98
2019-06-26T12:41:32.027Z,36.07
2019-06-26T12:42:32.013Z,36.05
2019-06-26T12:43:31.968Z,35.95
2019-06-26T12:44:31.966Z,35.93
2019-06-26T12:45:31.981Z,35.98
2019-06-26T12:46:31.940Z,35.97
2019-06-26T12:47:31.955Z,35.97
2019-06-26T12:48:31.954Z,36.01
2019-06-26T12:49:31.930Z,36.09
2019-06-26T12:50:35.790Z,36.18
2019-06-26T12:51:31.889Z,36.16
2019-06-26T12:52:31.883Z,36.16